createdAt,value
2017-08-23T10:56:03.972Z,1010.38
2017-08-23T10:56:44.531Z,1010.42
2017-08-23T10:57:25.074Z,1010.42
2017-08-23T10:58:05.635Z,1010.43
2017-08-23T10:58:46.371Z,1010.43
2017-08-23T10:59:26.935Z,1010.4
2017-08-23T11:00:07.478Z,1010.41
2017-08-23T11:00:48.028Z,1010.39
2017-08-23T11:01:28.579Z,1010.4
2017-08-23T11:02:09.132Z,1010.41
2017-08-23T11:02:49.720Z,1010.41
2017-08-23T11:03:30.257Z,1010.37
2017-08-23T11:04:10.804Z,1010.45
2017-08-23T11:04:51.351Z,1010.36
2017-08-23T11:05:31.896Z,1010.43
2017-08-23T11:06:12.449Z,1010.36
2017-08-23T11:06:52.999Z,1010.4
2017-08-23T11:07:33.646Z,1010.41
2017-08-23T11:08:14.199Z,1010.43
2017-08-23T11:08:54.750Z,1010.43
2017-08-23T11:09:35.309Z,1010.41
2017-08-23T11:10:15.860Z,1010.42
2017-08-23T11:10:56.408Z,1010.46
2017-08-23T11:11:36.958Z,1010.36
2017-08-23T11:12:17.506Z,1010.37
2017-08-23T11:12:58.050Z,1010.44
2017-08-23T11:13:38.598Z,1010.41
2017-08-23T11:14:19.149Z,1010.37
2017-08-23T11:14:59.692Z,1010.42
2017-08-23T11:15:40.242Z,1010.32
2017-08-23T11:16:20.785Z,1010.34
2017-08-23T11:17:01.339Z,1010.32
2017-08-23T11:17:41.882Z,1010.26
2017-08-23T11:18:22.433Z,1010.32
2017-08-23T11:19:02.986Z,1010.25
2017-08-23T11:19:43.536Z,1010.24
2017-08-23T11:20:24.120Z,1010.24
2017-08-23T11:21:04.684Z,1010.2
2017-08-23T11:21:45.230Z,1010.19
2017-08-23T11:22:25.773Z,1010.17
2017-08-23T11:23:06.323Z,1010.19
2017-08-23T11:23:46.865Z,1010.15
2017-08-23T11:24:27.416Z,1010.17
2017-08-23T11:25:07.956Z,1010.15
2017-08-23T11:25:48.516Z,1010.16
2017-08-23T11:26:29.047Z,1010.19
2017-08-23T11:27:09.635Z,1010.12
2017-08-23T11:27:50.183Z,1010.13
2017-08-23T11:28:30.812Z,1010.1
2017-08-23T11:29:11.362Z,1010.12
2017-08-23T11:29:51.900Z,1010.1
2017-08-23T11:30:32.442Z,1010.08
2017-08-23T11:31:12.972Z,1010.06
2017-08-23T11:31:53.521Z,1010.06
2017-08-23T11:32:34.060Z,1010.02
2017-08-23T11:33:14.606Z,1010.07
2017-08-23T11:33:55.157Z,1010.06
2017-08-23T11:34:35.692Z,1010.03
2017-08-23T11:35:16.243Z,1010.07
2017-08-23T11:35:56.793Z,1010.02
2017-08-23T11:36:37.340Z,1010.03
2017-08-23T11:37:17.889Z,1010.01
2017-08-23T11:37:58.434Z,1010
2017-08-23T11:38:39.069Z,1010.02
2017-08-23T11:39:20.605Z,1010.02
2017-08-23T11:40:01.284Z,1010.03
2017-08-23T11:40:41.832Z,1010.04
2017-08-23T11:41:22.448Z,1010
2017-08-23T11:42:03.002Z,1010
2017-08-23T11:42:43.541Z,1009.99
2017-08-23T11:43:24.100Z,1009.97
2017-08-23T11:44:04.739Z,1009.98
2017-08-23T11:44:45.351Z,1009.95
2017-08-23T11:45:25.950Z,1009.95
2017-08-23T11:46:06.550Z,1009.94
2017-08-23T11:46:48.042Z,1009.91
2017-08-23T11:47:28.579Z,1009.89
2017-08-23T11:48:09.300Z,1009.84
2017-08-23T11:48:49.959Z,1009.78
2017-08-23T11:49:30.619Z,1009.73
2017-08-23T11:50:11.239Z,1009.78
2017-08-23T11:50:51.883Z,1009.76
2017-08-23T11:51:32.487Z,1009.75
2017-08-23T11:52:13.228Z,1009.78
2017-08-23T11:52:53.834Z,1009.74
2017-08-23T11:53:34.380Z,1009.76
2017-08-23T11:54:14.924Z,1009.79
2017-08-23T11:54:56.443Z,1009.7
2017-08-23T11:55:36.992Z,1009.69
2017-08-23T11:56:17.574Z,1009.69
2017-08-23T11:56:58.222Z,1009.7
2017-08-23T11:57:38.755Z,1009.66
2017-08-23T11:58:19.421Z,1009.64
2017-08-23T11:59:00.055Z,1009.69
2017-08-23T11:59:40.658Z,1009.6
2017-08-23T12:00:21.469Z,1009.64
2017-08-23T12:01:02.266Z,1009.67
2017-08-23T12:01:43.619Z,1009.66
2017-08-23T12:02:24.158Z,1009.63
2017-08-23T12:03:04.704Z,1009.63
2017-08-23T12:03:45.426Z,1009.66
2017-08-23T12:04:25.980Z,1009.61
2017-08-23T12:05:06.620Z,1009.63
2017-08-23T12:05:47.242Z,1009.71
2017-08-23T12:06:27.932Z,1009.71
2017-08-23T12:07:08.652Z,1009.73
2017-08-23T12:07:49.332Z,1009.71
2017-08-23T12:08:29.908Z,1009.72
2017-08-23T12:09:10.508Z,1009.71
2017-08-23T12:09:51.414Z,1009.69
2017-08-23T12:10:31.895Z,1009.72
2017-08-23T12:11:12.438Z,1009.73
2017-08-23T12:11:53.089Z,1009.77
2017-08-23T12:12:33.748Z,1009.77
2017-08-23T12:13:14.393Z,1009.81
2017-08-23T12:13:55.149Z,1009.76
2017-08-23T12:14:36.219Z,1009.75
2017-08-23T12:15:17.764Z,1009.75
2017-08-23T12:15:58.408Z,1009.75
2017-08-23T12:16:39.813Z,1009.71
2017-08-23T12:17:20.627Z,1009.75
2017-08-23T12:18:01.216Z,1009.73
2017-08-23T12:18:41.768Z,1009.71
2017-08-23T12:19:22.395Z,1009.69
2017-08-23T12:20:02.987Z,1009.66
2017-08-23T12:20:43.625Z,1009.64
2017-08-23T12:21:24.249Z,1009.65
2017-08-23T12:22:04.819Z,1009.66
2017-08-23T12:22:45.443Z,1009.63
2017-08-23T12:23:26.767Z,1009.6
2017-08-23T12:24:07.318Z,1009.59
2017-08-23T12:24:47.944Z,1009.64
2017-08-23T12:25:28.482Z,1009.61
2017-08-23T12:26:09.104Z,1009.61
2017-08-23T12:26:49.661Z,1009.64
2017-08-23T12:27:30.252Z,1009.63
2017-08-23T12:28:10.808Z,1009.61
2017-08-23T12:28:51.346Z,1009.62
2017-08-23T12:29:32.102Z,1009.6
2017-08-23T12:30:12.868Z,1009.62
2017-08-23T12:30:54.110Z,1009.75
2017-08-23T12:31:34.808Z,1009.68
2017-08-23T12:32:15.483Z,1009.6
2017-08-23T12:32:56.318Z,1009.57
2017-08-23T12:33:36.853Z,1009.65
2017-08-23T12:34:17.492Z,1009.63
2017-08-23T12:34:58.359Z,1009.63
2017-08-23T12:35:38.910Z,1009.59
2017-08-23T12:36:19.451Z,1009.59
2017-08-23T12:37:00.002Z,1009.57
2017-08-23T12:37:40.541Z,1009.57
2017-08-23T12:38:21.093Z,1009.54
2017-08-23T12:39:01.639Z,1009.6
2017-08-23T12:39:42.185Z,1009.62
2017-08-23T12:40:22.729Z,1009.57
2017-08-23T12:41:03.274Z,1009.61
2017-08-23T12:41:43.816Z,1009.59
2017-08-23T12:42:24.365Z,1009.58
2017-08-23T12:43:04.907Z,1009.59
2017-08-23T12:43:45.488Z,1009.54
2017-08-23T12:44:26.039Z,1009.52
2017-08-23T12:45:06.593Z,1009.53
2017-08-23T12:45:47.132Z,1009.51
2017-08-23T12:46:27.680Z,1009.47
2017-08-23T12:47:08.223Z,1009.49
2017-08-23T12:47:48.774Z,1009.47
2017-08-23T12:48:29.318Z,1009.48
2017-08-23T12:49:09.852Z,1009.48
2017-08-23T12:49:50.392Z,1009.47
2017-08-23T12:50:30.932Z,1009.51
2017-08-23T12:51:11.478Z,1009.52
2017-08-23T12:51:52.021Z,1009.45
2017-08-23T12:52:32.572Z,1009.42
2017-08-23T12:53:13.115Z,1009.47
2017-08-23T12:53:53.664Z,1009.4
2017-08-23T12:54:34.211Z,1009.42
2017-08-23T12:55:14.761Z,1009.49
2017-08-23T12:55:55.313Z,1009.41
2017-08-23T12:56:35.856Z,1009.46
2017-08-23T12:57:16.409Z,1009.43
2017-08-23T12:57:56.942Z,1009.39
2017-08-23T12:58:37.495Z,1009.44
2017-08-23T12:59:18.055Z,1009.38
2017-08-23T12:59:58.598Z,1009.47
2017-08-23T13:00:39.151Z,1009.4
2017-08-23T13:01:19.680Z,1009.39
2017-08-23T13:02:00.234Z,1009.39
2017-08-23T13:02:40.778Z,1009.42
2017-08-23T13:03:21.349Z,1009.4
2017-08-23T13:04:01.893Z,1009.43
2017-08-23T13:04:42.435Z,1009.42
2017-08-23T13:05:22.983Z,1009.41
2017-08-23T13:06:03.518Z,1009.4
2017-08-23T13:06:44.060Z,1009.43
2017-08-23T13:07:24.608Z,1009.4
2017-08-23T13:08:05.142Z,1009.41
2017-08-23T13:08:45.686Z,1009.44
2017-08-23T13:09:26.232Z,1009.42
2017-08-23T13:10:06.781Z,1009.44
2017-08-23T13:10:47.336Z,1009.4
2017-08-23T13:11:27.882Z,1009.38
2017-08-23T13:12:08.417Z,1009.36
2017-08-23T13:12:48.963Z,1009.32
2017-08-23T13:13:29.487Z,1009.35
2017-08-23T13:14:10.145Z,1009.33
2017-08-23T13:14:50.945Z,1009.39
2017-08-23T13:15:31.645Z,1009.34
2017-08-23T13:16:12.527Z,1009.33
2017-08-23T13:16:53.327Z,1009.3
2017-08-23T13:17:34.099Z,1009.3
2017-08-23T13:18:14.632Z,1009.33
2017-08-23T13:18:55.196Z,1009.3
2017-08-23T13:19:35.896Z,1009.25
2017-08-23T13:20:16.454Z,1009.25
2017-08-23T13:20:57.086Z,1009.26
2017-08-23T13:21:37.917Z,1009.21
2017-08-23T13:22:18.428Z,1009.21
2017-08-23T13:22:58.990Z,1009.2
2017-08-23T13:23:39.570Z,1009.22
2017-08-23T13:24:20.407Z,1009.2
2017-08-23T13:25:01.853Z,1009.2
2017-08-23T13:25:42.463Z,1009.18
2017-08-23T13:26:23.182Z,1009.22
2017-08-23T13:27:03.831Z,1009.17
2017-08-23T13:27:44.458Z,1009.15
2017-08-23T13:28:25.403Z,1009.15
2017-08-23T13:29:06.102Z,1009.24
2017-08-23T13:29:46.686Z,1009.2
2017-08-23T13:30:27.220Z,1009.14
2017-08-23T13:31:07.868Z,1009.16
2017-08-23T13:31:48.635Z,1009.11
2017-08-23T13:32:29.272Z,1009.17
2017-08-23T13:33:09.861Z,1009.1
2017-08-23T13:33:50.526Z,1009.09
2017-08-23T13:34:31.067Z,1009.12
2017-08-23T13:35:11.751Z,1009.1
2017-08-23T13:35:52.357Z,1009.05
2017-08-23T13:36:33.259Z,1009.1
2017-08-23T13:37:13.790Z,1009.06
2017-08-23T13:37:54.337Z,1009.06
2017-08-23T13:38:34.946Z,1009.03
2017-08-23T13:39:15.800Z,1009.04
2017-08-23T13:39:57.064Z,1009.03
2017-08-23T13:40:37.693Z,1009.01
2017-08-23T13:41:18.269Z,1009.03
2017-08-23T13:41:58.806Z,1009.05
2017-08-23T13:42:39.920Z,1009.01
2017-08-23T13:43:20.492Z,1009
2017-08-23T13:44:01.075Z,1009
2017-08-23T13:44:41.611Z,1008.98
2017-08-23T13:45:22.294Z,1008.95
2017-08-23T13:46:02.996Z,1008.95
2017-08-23T13:46:43.672Z,1008.93
2017-08-23T13:47:24.192Z,1008.86
2017-08-23T13:48:04.730Z,1008.89
2017-08-23T13:48:45.257Z,1008.86
2017-08-23T13:49:25.791Z,1008.92
2017-08-23T13:50:06.543Z,1008.88
2017-08-23T13:50:47.198Z,1008.86
2017-08-23T13:51:27.864Z,1008.9
2017-08-23T13:52:08.671Z,1008.91
2017-08-23T13:52:49.267Z,1008.89
2017-08-23T13:53:29.965Z,1008.88
2017-08-23T13:54:10.883Z,1008.89
2017-08-23T13:54:51.653Z,1008.9
2017-08-23T13:55:32.323Z,1008.94
2017-08-23T13:56:12.873Z,1008.91
2017-08-23T13:56:53.668Z,1008.91
2017-08-23T13:57:34.463Z,1008.92
2017-08-23T13:58:15.189Z,1008.89
2017-08-23T13:58:56.080Z,1008.91
2017-08-23T13:59:36.630Z,1008.87
2017-08-23T14:00:17.177Z,1008.88
2017-08-23T14:00:57.820Z,1008.85
2017-08-23T14:01:38.565Z,1008.87
2017-08-23T14:02:19.237Z,1008.82
2017-08-23T14:02:59.786Z,1008.85
2017-08-23T14:03:40.629Z,1008.78
2017-08-23T14:04:21.499Z,1008.83
2017-08-23T14:05:02.058Z,1008.8
2017-08-23T14:05:42.665Z,1008.76
2017-08-23T14:06:23.206Z,1008.86
2017-08-23T14:07:03.730Z,1008.79
2017-08-23T14:07:44.306Z,1008.83
2017-08-23T14:08:24.951Z,1008.81
2017-08-23T14:09:05.495Z,1008.82
2017-08-23T14:09:46.209Z,1008.82
2017-08-23T14:10:26.776Z,1008.82
2017-08-23T14:11:07.317Z,1008.83
2017-08-23T14:11:48.100Z,1008.85
2017-08-23T14:12:28.735Z,1008.85
2017-08-23T14:13:09.384Z,1008.84
2017-08-23T14:13:49.943Z,1008.77
2017-08-23T14:14:30.645Z,1008.76
2017-08-23T14:15:11.273Z,1008.77
2017-08-23T14:15:51.820Z,1008.81
2017-08-23T14:16:32.363Z,1008.83
2017-08-23T14:17:12.899Z,1008.83
2017-08-23T14:17:53.466Z,1008.85
2017-08-23T14:18:33.980Z,1008.83
2017-08-23T14:19:14.523Z,1008.81
2017-08-23T14:19:55.072Z,1008.77
2017-08-23T14:20:35.617Z,1008.79
2017-08-23T14:21:16.158Z,1008.75
2017-08-23T14:21:56.705Z,1008.76
2017-08-23T14:22:37.241Z,1008.76
2017-08-23T14:23:17.835Z,1008.7
2017-08-23T14:23:58.322Z,1008.69
2017-08-23T14:24:38.877Z,1008.67
2017-08-23T14:25:19.409Z,1008.68
2017-08-23T14:25:59.958Z,1008.67
2017-08-23T14:26:40.509Z,1008.67
2017-08-23T14:27:21.052Z,1008.64
2017-08-23T14:28:01.595Z,1008.66
2017-08-23T14:28:42.131Z,1008.62
2017-08-23T14:29:22.663Z,1008.62
2017-08-23T14:30:03.197Z,1008.6
2017-08-23T14:30:43.743Z,1008.66
2017-08-23T14:31:24.283Z,1008.6
2017-08-23T14:32:04.807Z,1008.56
2017-08-23T14:32:45.352Z,1008.62
2017-08-23T14:33:25.905Z,1008.63
2017-08-23T14:34:06.440Z,1008.62
2017-08-23T14:34:46.986Z,1008.62
2017-08-23T14:35:27.541Z,1008.65
2017-08-23T14:36:08.081Z,1008.62
2017-08-23T14:36:48.622Z,1008.59
2017-08-23T14:37:29.170Z,1008.63
2017-08-23T14:38:09.707Z,1008.6
2017-08-23T14:38:50.251Z,1008.57
2017-08-23T14:39:30.789Z,1008.56
2017-08-23T14:40:11.339Z,1008.55
2017-08-23T14:40:51.872Z,1008.56
2017-08-23T14:41:32.419Z,1008.55
2017-08-23T14:42:12.968Z,1008.53
2017-08-23T14:42:53.523Z,1008.45
2017-08-23T14:43:34.070Z,1008.47
2017-08-23T14:44:14.588Z,1008.48
2017-08-23T14:44:55.120Z,1008.39
2017-08-23T14:45:35.647Z,1008.44
2017-08-23T14:46:16.196Z,1008.44
2017-08-23T14:46:56.732Z,1008.38
2017-08-23T14:47:37.263Z,1008.36
2017-08-23T14:48:17.816Z,1008.37
2017-08-23T14:48:58.361Z,1008.34
2017-08-23T14:49:38.906Z,1008.33
2017-08-23T14:50:19.448Z,1008.31
2017-08-23T14:51:00.033Z,1008.21
2017-08-23T14:51:40.581Z,1008.27
2017-08-23T14:52:21.131Z,1008.27
2017-08-23T14:53:01.680Z,1008.26
2017-08-23T14:53:42.233Z,1008.24
2017-08-23T14:54:22.778Z,1008.25
2017-08-23T14:55:03.319Z,1008.27
2017-08-23T14:55:43.852Z,1008.25
2017-08-23T14:56:24.377Z,1008.28
2017-08-23T14:57:04.917Z,1008.27
2017-08-23T14:57:45.457Z,1008.26
2017-08-23T14:58:25.994Z,1008.26
2017-08-23T14:59:06.544Z,1008.23
2017-08-23T14:59:47.084Z,1008.22
2017-08-23T15:00:27.639Z,1008.28
2017-08-23T15:01:08.189Z,1008.23
2017-08-23T15:01:48.737Z,1008.24
2017-08-23T15:02:29.282Z,1008.26
2017-08-23T15:03:09.823Z,1008.24
2017-08-23T15:03:50.369Z,1008.22
2017-08-23T15:04:30.913Z,1008.19
2017-08-23T15:05:11.450Z,1008.2
2017-08-23T15:05:52.011Z,1008.19
2017-08-23T15:06:32.534Z,1008.19
2017-08-23T15:07:13.088Z,1008.18
2017-08-23T15:07:53.634Z,1008.16
2017-08-23T15:08:34.152Z,1008.14
2017-08-23T15:09:14.686Z,1008.15
2017-08-23T15:09:55.250Z,1008.16
2017-08-23T15:10:35.807Z,1008.17
2017-08-23T15:11:16.353Z,1008.18
2017-08-23T15:11:56.908Z,1008.17
2017-08-23T15:12:37.477Z,1008.17
2017-08-23T15:13:18.039Z,1008.19
2017-08-23T15:13:58.591Z,1008.18
2017-08-23T15:14:39.143Z,1008.18
2017-08-23T15:15:20.529Z,1008.15
2017-08-23T15:16:01.153Z,1008.17
2017-08-23T15:16:41.634Z,1008.19
2017-08-23T15:17:22.220Z,1008.18
2017-08-23T15:18:02.732Z,1008.18
2017-08-23T15:18:43.270Z,1008.15
2017-08-23T15:19:23.818Z,1008.21
2017-08-23T15:20:04.347Z,1008.13
2017-08-23T15:20:44.909Z,1008.11
2017-08-23T15:21:25.517Z,1008.09
2017-08-23T15:22:06.103Z,1008.13
2017-08-23T15:22:46.648Z,1008.1
2017-08-23T15:23:27.246Z,1008.1
2017-08-23T15:24:07.779Z,1008.07
2017-08-23T15:24:48.319Z,1008.07
2017-08-23T15:25:28.874Z,1008.06
2017-08-23T15:26:09.505Z,1008.02
2017-08-23T15:26:50.130Z,1008.03
2017-08-23T15:27:30.637Z,1008.04
2017-08-23T15:28:11.177Z,1008.07
2017-08-23T15:28:53.272Z,1008.09
2017-08-23T15:29:33.813Z,1008.06
2017-08-23T15:30:14.373Z,1008.07
2017-08-23T15:30:54.865Z,1008.09
2017-08-23T15:31:35.343Z,1008.09
2017-08-23T15:32:15.873Z,1008.09
2017-08-23T15:32:56.411Z,1008.1
2017-08-23T15:33:39.930Z,1008.1
2017-08-23T15:34:22.076Z,1008.11
2017-08-23T15:35:02.642Z,1008.09
2017-08-23T15:35:43.185Z,1008.09
2017-08-23T15:36:23.739Z,1008.09
2017-08-23T15:37:04.272Z,1008.11
2017-08-23T15:37:44.809Z,1008.11
2017-08-23T15:38:25.339Z,1008.12
2017-08-23T15:39:05.887Z,1008.11
2017-08-23T15:39:46.415Z,1008.11
2017-08-23T15:40:26.949Z,1008.1
2017-08-23T15:41:07.475Z,1008.1
2017-08-23T15:41:48.025Z,1008.1
2017-08-23T15:42:28.582Z,1008.13
2017-08-23T15:43:09.127Z,1008.16
2017-08-23T15:43:49.669Z,1008.16
2017-08-23T15:44:30.186Z,1008.21
2017-08-23T15:45:10.733Z,1008.19
2017-08-23T15:45:51.257Z,1008.17
2017-08-23T15:46:31.782Z,1008.18
2017-08-23T15:47:12.302Z,1008.17
2017-08-23T15:47:52.846Z,1008.15
2017-08-23T15:48:33.423Z,1008.14
2017-08-23T15:49:13.969Z,1008.11
2017-08-23T15:49:54.505Z,1008.12
2017-08-23T15:50:35.122Z,1008.1
2017-08-23T15:51:15.668Z,1008.09
2017-08-23T15:51:56.191Z,1008.11
2017-08-23T15:52:36.742Z,1008.09
2017-08-23T15:53:17.279Z,1008.09
2017-08-23T15:53:57.840Z,1008.04
2017-08-23T15:54:38.355Z,1008.05
2017-08-23T15:55:18.940Z,1008.02
2017-08-23T15:55:59.492Z,1007.99
2017-08-23T15:56:40.026Z,1007.97
2017-08-23T15:57:20.579Z,1007.96
2017-08-23T15:58:01.125Z,1007.94
2017-08-23T15:58:41.665Z,1007.95
2017-08-23T15:59:22.193Z,1007.94
2017-08-23T16:00:02.716Z,1007.89
2017-08-23T16:00:43.253Z,1007.9
2017-08-23T16:01:23.818Z,1007.85
2017-08-23T16:02:04.403Z,1007.87
2017-08-23T16:02:44.985Z,1007.82
2017-08-23T16:03:25.533Z,1007.79
2017-08-23T16:04:06.073Z,1007.82
2017-08-23T16:04:46.614Z,1007.84
2017-08-23T16:05:27.169Z,1007.82
2017-08-23T16:06:07.715Z,1007.75
2017-08-23T16:06:48.262Z,1007.77
2017-08-23T16:07:28.812Z,1007.8
2017-08-23T16:08:09.351Z,1007.84
2017-08-23T16:08:49.885Z,1007.81
2017-08-23T16:09:30.441Z,1007.79
2017-08-23T16:10:11.016Z,1007.8
2017-08-23T16:10:51.569Z,1007.8
2017-08-23T16:11:32.128Z,1007.79
2017-08-23T16:12:12.675Z,1007.8
2017-08-23T16:12:53.351Z,1007.79
2017-08-23T16:13:33.896Z,1007.82
2017-08-23T16:14:14.434Z,1007.83
2017-08-23T16:14:54.975Z,1007.85
2017-08-23T16:15:35.524Z,1007.79
2017-08-23T16:16:16.102Z,1007.84
2017-08-23T16:16:56.652Z,1007.85
2017-08-23T16:17:37.204Z,1007.85
2017-08-23T16:18:17.734Z,1007.86
2017-08-23T16:18:58.312Z,1007.8
2017-08-23T16:19:38.876Z,1007.81
2017-08-23T16:20:19.416Z,1007.84
2017-08-23T16:20:59.971Z,1007.8
2017-08-23T16:21:40.502Z,1007.8
2017-08-23T16:22:21.090Z,1007.81
2017-08-23T16:23:01.631Z,1007.78
2017-08-23T16:23:42.169Z,1007.79
2017-08-23T16:24:22.703Z,1007.77
2017-08-23T16:25:03.248Z,1007.76
2017-08-23T16:25:43.816Z,1007.83
2017-08-23T16:26:24.353Z,1007.85
2017-08-23T16:27:04.895Z,1007.84
2017-08-23T16:27:45.431Z,1007.88
2017-08-23T16:28:25.964Z,1007.84
2017-08-23T16:29:06.515Z,1007.85
2017-08-23T16:29:47.036Z,1007.87
2017-08-23T16:30:27.569Z,1007.84
2017-08-23T16:31:08.124Z,1007.84
2017-08-23T16:31:48.650Z,1007.84
2017-08-23T16:32:29.224Z,1007.81
2017-08-23T16:33:09.742Z,1007.86
2017-08-23T16:33:50.273Z,1007.88
2017-08-23T16:34:30.811Z,1007.88
2017-08-23T16:35:11.353Z,1007.83
2017-08-23T16:35:51.907Z,1007.89
2017-08-23T16:36:32.457Z,1007.85
2017-08-23T16:37:12.999Z,1007.82
2017-08-23T16:37:53.546Z,1007.82
2017-08-23T16:38:34.118Z,1007.86
2017-08-23T16:39:14.658Z,1007.85
2017-08-23T16:39:56.914Z,1007.82
2017-08-23T16:40:41.039Z,1007.84
2017-08-23T16:41:21.559Z,1007.84
2017-08-23T16:42:02.086Z,1007.83
2017-08-23T16:42:42.631Z,1007.81
2017-08-23T16:43:23.205Z,1007.83
2017-08-23T16:44:03.693Z,1007.77
2017-08-23T16:44:44.232Z,1007.77
2017-08-23T16:45:24.776Z,1007.75
2017-08-23T16:46:05.300Z,1007.74
2017-08-23T16:46:45.843Z,1007.75
2017-08-23T16:47:26.372Z,1007.76
2017-08-23T16:48:06.931Z,1007.79
2017-08-23T16:48:47.461Z,1007.79
2017-08-23T16:49:27.992Z,1007.8
2017-08-23T16:50:09.046Z,1007.78
2017-08-23T16:50:49.583Z,1007.76
2017-08-23T16:51:30.117Z,1007.75
2017-08-23T16:52:10.649Z,1007.71
2017-08-23T16:52:51.187Z,1007.69
2017-08-23T16:53:31.735Z,1007.71
2017-08-23T16:54:12.277Z,1007.68
2017-08-23T16:54:52.829Z,1007.68
2017-08-23T16:55:33.374Z,1007.68
2017-08-23T16:56:13.916Z,1007.64
2017-08-23T16:56:54.460Z,1007.68
2017-08-23T16:57:34.976Z,1007.62
2017-08-23T16:58:15.488Z,1007.63
2017-08-23T16:58:56.013Z,1007.66
2017-08-23T16:59:36.560Z,1007.63
2017-08-23T17:00:17.081Z,1007.66
2017-08-23T17:00:57.609Z,1007.68
2017-08-23T17:01:38.174Z,1007.67
2017-08-23T17:02:18.689Z,1007.66
2017-08-23T17:02:59.233Z,1007.68
2017-08-23T17:03:39.764Z,1007.63
2017-08-23T17:04:20.296Z,1007.66
2017-08-23T17:05:00.814Z,1007.69
2017-08-23T17:05:41.361Z,1007.66
2017-08-23T17:06:21.885Z,1007.64
2017-08-23T17:07:02.426Z,1007.68
2017-08-23T17:07:42.960Z,1007.68
2017-08-23T17:08:23.523Z,1007.69
2017-08-23T17:09:04.050Z,1007.66
2017-08-23T17:09:44.583Z,1007.68
2017-08-23T17:10:25.129Z,1007.68
2017-08-23T17:11:05.662Z,1007.7
2017-08-23T17:11:46.200Z,1007.72
2017-08-23T17:12:26.731Z,1007.68
2017-08-23T17:13:07.252Z,1007.74
2017-08-23T17:13:47.795Z,1007.68
2017-08-23T17:14:28.308Z,1007.7
2017-08-23T17:15:08.841Z,1007.69
2017-08-23T17:15:49.406Z,1007.73
2017-08-23T17:16:29.906Z,1007.7
2017-08-23T17:17:10.427Z,1007.7
2017-08-23T17:17:50.973Z,1007.72
2017-08-23T17:18:31.505Z,1007.77
2017-08-23T17:19:12.049Z,1007.77
2017-08-23T17:19:52.600Z,1007.73
2017-08-23T17:20:33.142Z,1007.72
2017-08-23T17:21:13.689Z,1007.75
2017-08-23T17:21:54.231Z,1007.77
2017-08-23T17:22:34.781Z,1007.73
2017-08-23T17:23:15.321Z,1007.72
2017-08-23T17:23:55.860Z,1007.73
2017-08-23T17:24:36.405Z,1007.68
2017-08-23T17:25:16.948Z,1007.72
2017-08-23T17:25:57.499Z,1007.68
2017-08-23T17:26:38.031Z,1007.69
2017-08-23T17:27:18.570Z,1007.69
2017-08-23T17:27:59.121Z,1007.67
2017-08-23T17:28:39.698Z,1007.68
2017-08-23T17:29:20.224Z,1007.68
2017-08-23T17:30:00.770Z,1007.68
2017-08-23T17:30:41.334Z,1007.67
2017-08-23T17:31:21.866Z,1007.65
2017-08-23T17:32:02.417Z,1007.67
2017-08-23T17:32:42.967Z,1007.7
2017-08-23T17:33:23.504Z,1007.72
2017-08-23T17:34:04.056Z,1007.71
2017-08-23T17:34:44.610Z,1007.71
2017-08-23T17:35:25.145Z,1007.76
2017-08-23T17:36:05.698Z,1007.71
2017-08-23T17:36:46.248Z,1007.75
2017-08-23T17:37:26.782Z,1007.73
2017-08-23T17:38:07.323Z,1007.73
2017-08-23T17:38:47.870Z,1007.78
2017-08-23T17:39:28.400Z,1007.77
2017-08-23T17:40:08.930Z,1007.78
2017-08-23T17:40:49.476Z,1007.81
2017-08-23T17:41:30.013Z,1007.79
2017-08-23T17:42:10.649Z,1007.8
2017-08-23T17:42:51.160Z,1007.8
2017-08-23T17:43:31.686Z,1007.83
2017-08-23T17:44:12.232Z,1007.84
2017-08-23T17:44:52.780Z,1007.83
2017-08-23T17:45:33.323Z,1007.83
2017-08-23T17:46:14.196Z,1007.83
2017-08-23T17:46:54.741Z,1007.84
2017-08-23T17:47:35.276Z,1007.83
2017-08-23T17:48:15.819Z,1007.79
2017-08-23T17:48:56.469Z,1007.82
2017-08-23T17:49:37.013Z,1007.82
2017-08-23T17:50:17.594Z,1007.79
2017-08-23T17:50:58.147Z,1007.83
2017-08-23T17:51:38.689Z,1007.8
2017-08-23T17:52:19.226Z,1007.77
2017-08-23T17:52:59.773Z,1007.77
2017-08-23T17:53:40.320Z,1007.79
2017-08-23T17:54:20.868Z,1007.77
2017-08-23T17:55:01.409Z,1007.79
2017-08-23T17:55:41.943Z,1007.77
2017-08-23T17:56:22.492Z,1007.77
2017-08-23T17:57:03.042Z,1007.77
2017-08-23T17:57:43.567Z,1007.78
2017-08-23T17:58:24.111Z,1007.77
2017-08-23T17:59:04.655Z,1007.76
2017-08-23T17:59:45.205Z,1007.8
2017-08-23T18:00:25.735Z,1007.75
2017-08-23T18:01:06.281Z,1007.73
2017-08-23T18:01:46.819Z,1007.76
2017-08-23T18:02:27.336Z,1007.75
2017-08-23T18:03:07.878Z,1007.75
2017-08-23T18:03:48.418Z,1007.77
2017-08-23T18:04:29.093Z,1007.75
2017-08-23T18:05:09.637Z,1007.76
2017-08-23T18:05:50.241Z,1007.73
2017-08-23T18:06:30.761Z,1007.73
2017-08-23T18:07:11.360Z,1007.74
2017-08-23T18:07:51.933Z,1007.73
2017-08-23T18:08:32.483Z,1007.71
2017-08-23T18:09:13.011Z,1007.76
2017-08-23T18:09:53.550Z,1007.69
2017-08-23T18:10:34.101Z,1007.7
2017-08-23T18:11:14.644Z,1007.7
2017-08-23T18:11:55.267Z,1007.69
2017-08-23T18:12:35.766Z,1007.69
2017-08-23T18:13:16.318Z,1007.71
2017-08-23T18:13:56.930Z,1007.75
2017-08-23T18:14:37.459Z,1007.75
2017-08-23T18:15:18.049Z,1007.74
2017-08-23T18:15:58.601Z,1007.76
2017-08-23T18:16:39.152Z,1007.78
2017-08-23T18:17:19.754Z,1007.81
2017-08-23T18:18:00.291Z,1007.82
2017-08-23T18:18:40.839Z,1007.84
2017-08-23T18:19:21.370Z,1007.85
2017-08-23T18:20:01.919Z,1007.84
2017-08-23T18:20:42.467Z,1007.85
2017-08-23T18:21:23.015Z,1007.87
2017-08-23T18:22:03.557Z,1007.88
2017-08-23T18:22:44.097Z,1007.92
2017-08-23T18:23:24.633Z,1007.87
2017-08-23T18:24:05.176Z,1007.9
2017-08-23T18:24:45.717Z,1007.93
2017-08-23T18:25:26.265Z,1007.93
2017-08-23T18:26:06.801Z,1007.94
2017-08-23T18:26:47.349Z,1007.95
2017-08-23T18:27:27.896Z,1007.94
2017-08-23T18:28:08.435Z,1007.94
2017-08-23T18:28:49.035Z,1007.95
2017-08-23T18:29:29.572Z,1007.94
2017-08-23T18:30:10.116Z,1007.93
2017-08-23T18:30:50.663Z,1007.9
2017-08-23T18:31:31.205Z,1007.9
2017-08-23T18:32:11.741Z,1007.91
2017-08-23T18:32:52.284Z,1007.87
2017-08-23T18:33:32.816Z,1007.86
2017-08-23T18:34:13.356Z,1007.89
2017-08-23T18:34:53.888Z,1007.9
2017-08-23T18:35:34.425Z,1007.89
2017-08-23T18:36:14.976Z,1007.93
2017-08-23T18:36:55.592Z,1007.95
2017-08-23T18:37:36.137Z,1007.96
2017-08-23T18:38:16.685Z,1007.97
2017-08-23T18:38:57.215Z,1007.97
2017-08-23T18:39:37.749Z,1007.97
2017-08-23T18:40:18.286Z,1007.95
2017-08-23T18:40:58.830Z,1007.96
2017-08-23T18:41:39.358Z,1007.95
2017-08-23T18:42:19.906Z,1007.94
2017-08-23T18:43:00.464Z,1007.98
2017-08-23T18:43:40.979Z,1007.96
2017-08-23T18:44:21.512Z,1007.97
2017-08-23T18:45:02.047Z,1008.01
2017-08-23T18:45:42.590Z,1008
2017-08-23T18:46:23.136Z,1008
2017-08-23T18:47:03.674Z,1007.99
2017-08-23T18:47:44.218Z,1007.99
2017-08-23T18:48:24.759Z,1007.96
2017-08-23T18:49:05.298Z,1007.96
2017-08-23T18:49:45.829Z,1007.97
2017-08-23T18:50:26.370Z,1007.97
2017-08-23T18:51:06.895Z,1007.93
2017-08-23T18:51:47.427Z,1007.94
2017-08-23T18:52:28.383Z,1007.95
2017-08-23T18:53:08.930Z,1007.96
2017-08-23T18:53:49.470Z,1007.95
2017-08-23T18:54:30.013Z,1007.92
2017-08-23T18:55:10.558Z,1007.92
2017-08-23T18:55:51.093Z,1007.93
2017-08-23T18:56:31.659Z,1007.89
2017-08-23T18:57:12.555Z,1007.9
2017-08-23T18:57:53.378Z,1007.89
2017-08-23T18:58:34.006Z,1007.92
2017-08-23T18:59:14.738Z,1007.89
2017-08-23T18:59:55.530Z,1007.88
2017-08-23T19:00:52.669Z,1007.91
2017-08-23T19:02:01.428Z,1007.85
2017-08-23T19:02:43.225Z,1007.89
2017-08-23T19:03:23.762Z,1007.86
2017-08-23T19:04:04.597Z,1007.87
2017-08-23T19:04:45.881Z,1007.86
2017-08-23T19:05:26.427Z,1007.86
2017-08-23T19:06:06.957Z,1007.89
2017-08-23T19:06:47.497Z,1007.89
2017-08-23T19:07:28.036Z,1007.9
2017-08-23T19:08:08.575Z,1007.86
2017-08-23T19:08:49.115Z,1007.85
2017-08-23T19:09:29.653Z,1007.86